Springfield, Georgia
Current Conditions -  °F | °C
As of 9:53 PM on Sunday 23 Nov 2014 (Local Time) from KSAV Reporting Station
Light Rain Light Rain  
Wind Chill: 69°   Ceiling: 10000
Heat Index: 69°   Visibility: 10mi
Dew Point: 64°   Wind: 7mph
Humidity: 84%   Direction: 120°ESE
Pressure: 29.83"   Gusts: NA
Location:  32.37°N, 81.31°W
Report Text: KSAV 240253Z 12006KT 10SM -RA FEW075 BKN100 21/18 A2983 RMK AO2 PK WND 27026/0204 TSE02 PRESFR SLP100 P0011 60028 T02060178 58006 $
Loading
Personal Weather Stations






























Interactive Weather Map New forecast layout! Learn more

10-Day Weather Forecast

Advertisements
Track Severe Weather on mobile